This is the latest recevied weather packets stored in our database for station/object XE2AD-5. If no packets are shown the sender has not sent any weather packets the latest 10 day(s).
| Time | Temp. | Humidity | Pressure | Rain* | Wind** | Luminosity | Snow |
|---|---|---|---|---|---|---|---|
| 1777418710 | 30° C | 20% | 805.6 hPa | - | - | - | - |
| 1777415410 | 29.44° C | 18% | 806 hPa | - | - | - | - |
| 1777412110 | 29.44° C | 19% | 806.4 hPa | - | - | - | - |
| 1777408810 | 28.33° C | 23% | 807 hPa | - | - | - | - |
| 1777405509 | 27.78° C | 23% | 807.9 hPa | - | - | - | - |
| 1777402209 | 27.22° C | 24% | 808.7 hPa | - | - | - | - |
| 1777398909 | 26.67° C | 24% | 809.5 hPa | - | - | - | - |
| 1777395609 | 26.67° C | 25% | 809.8 hPa | - | - | - | - |
| 1777392309 | 26.11° C | 25% | 810.2 hPa | - | - | - | - |
| 1777389008 | 26.11° C | 24% | 810.2 hPa | - | - | - | - |
| 1777385708 | 26.67° C | 24% | 809.8 hPa | - | - | - | - |
| 1777382408 | 26.67° C | 24% | 809.5 hPa | - | - | - | - |
| 1777379108 | 26.67° C | 24% | 809 hPa | - | - | - | - |
| 1777375808 | 27.22° C | 23% | 808.4 hPa | - | - | - | - |
| 1777372508 | 27.22° C | 23% | 808.2 hPa | - | - | - | - |
| 1777369207 | 27.78° C | 22% | 808 hPa | - | - | - | - |
| 1777365907 | 27.78° C | 22% | 808 hPa | - | - | - | - |
| 1777362607 | 28.33° C | 22% | 808 hPa | - | - | - | - |
| 1777359307 | 28.33° C | 22% | 808.1 hPa | - | - | - | - |
| 1777356007 | 28.89° C | 21% | 807.3 hPa | - | - | - | - |
| 1777352707 | 28.89° C | 20% | 807 hPa | - | - | - | - |
| 1777349406 | 28.89° C | 18% | 806.7 hPa | - | - | - | - |
| 1777346106 | 29.44° C | 17% | 806.3 hPa | - | - | - | - |
| 1777342807 | 29.44° C | 18% | 805.5 hPa | - | - | - | - |
| 1777339506 | 30° C | 19% | 804.8 hPa | - | - | - | - |
* Rain since midnight (hover to see other rain measurements)
** Current wind speed in m/s (hover to see current wind gust speed)